createdAt,value
2023-06-10T00:00:08.448Z,8.40
2023-06-10T00:02:35.433Z,8.23
2023-06-10T00:05:02.721Z,8.60
2023-06-10T00:07:31.081Z,8.65
2023-06-10T00:09:58.034Z,8.10
2023-06-10T00:12:25.000Z,8.90
2023-06-10T00:14:52.000Z,8.55
2023-06-10T00:17:18.953Z,8.85
2023-06-10T00:19:46.089Z,8.70
2023-06-10T00:22:13.172Z,9.00
2023-06-10T00:24:41.552Z,9.25
2023-06-10T00:27:08.740Z,8.75
2023-06-10T00:29:35.775Z,9.45
2023-06-10T00:32:03.172Z,9.18
2023-06-10T00:34:30.330Z,9.07
2023-06-10T00:36:57.304Z,8.45
2023-06-10T00:39:24.216Z,9.27
2023-06-10T00:41:52.590Z,9.40
2023-06-10T00:44:19.600Z,9.38
2023-06-10T00:46:46.897Z,8.90
2023-06-10T00:49:14.227Z,9.27
2023-06-10T00:51:41.422Z,9.60
2023-06-10T00:54:08.984Z,9.13
2023-06-10T00:56:37.384Z,9.52
2023-06-10T00:59:05.812Z,9.60
2023-06-10T01:01:33.030Z,9.63
2023-06-10T01:04:00.263Z,9.13
2023-06-10T01:06:36.624Z,9.90
2023-06-10T01:09:12.329Z,9.93
2023-06-10T01:11:46.741Z,9.82
2023-06-10T01:14:15.517Z,9.18
2023-06-10T01:16:42.500Z,9.77
2023-06-10T01:19:09.457Z,10.10
2023-06-10T01:21:39.363Z,9.57
2023-06-10T01:24:07.116Z,9.90
2023-06-10T01:26:35.915Z,9.85
2023-06-10T01:29:08.730Z,9.50
2023-06-10T01:31:43.359Z,9.70
2023-06-10T01:36:42.185Z,10.45
2023-06-10T01:39:11.783Z,10.13
2023-06-10T01:41:39.461Z,10.15
2023-06-10T01:44:06.486Z,10.70
2023-06-10T01:46:33.565Z,10.05
2023-06-10T01:49:00.536Z,9.63
2023-06-10T01:51:27.518Z,10.15
2023-06-10T01:53:55.853Z,10.63
2023-06-10T01:56:22.806Z,10.13
2023-06-10T01:58:49.781Z,9.80
2023-06-10T02:01:16.842Z,10.23
2023-06-10T02:03:43.907Z,10.15
2023-06-10T02:06:10.882Z,10.25
2023-06-10T02:08:37.901Z,10.23
2023-06-10T02:11:06.241Z,9.95
2023-06-10T02:13:33.221Z,10.75
2023-06-10T02:16:00.239Z,9.88
2023-06-10T02:18:27.157Z,10.23
2023-06-10T02:20:54.094Z,9.90
2023-06-10T02:23:21.210Z,10.82
2023-06-10T02:25:48.131Z,10.50
2023-06-10T02:28:16.657Z,9.82
2023-06-10T02:30:43.816Z,10.13
2023-06-10T02:33:10.839Z,10.90
2023-06-10T02:35:38.627Z,10.20
2023-06-10T02:38:05.603Z,10.50
2023-06-10T02:40:32.688Z,10.57
2023-06-10T02:42:59.615Z,9.82
2023-06-10T02:45:28.190Z,10.45
2023-06-10T02:47:55.341Z,10.65
2023-06-10T02:50:22.474Z,11.05
2023-06-10T02:52:50.093Z,10.57
2023-06-10T02:55:17.113Z,11.20
2023-06-10T02:57:44.059Z,10.20
2023-06-10T03:00:11.881Z,10.85
2023-06-10T03:02:40.320Z,10.77
2023-06-10T03:05:08.353Z,10.35
2023-06-10T03:07:35.510Z,10.30
2023-06-10T03:10:02.481Z,10.55
2023-06-10T03:12:29.466Z,10.98
2023-06-10T03:14:57.634Z,10.57
2023-06-10T03:17:24.601Z,11.20
2023-06-10T03:19:53.044Z,10.52
2023-06-10T03:22:20.027Z,10.77
2023-06-10T03:24:46.981Z,11.60
2023-06-10T03:27:14.022Z,11.43
2023-06-10T03:29:41.229Z,11.45
2023-06-10T03:32:08.662Z,10.75
2023-06-10T03:34:35.662Z,11.57
2023-06-10T03:37:04.257Z,11.23
2023-06-10T03:39:31.276Z,10.70
2023-06-10T03:41:58.294Z,11.57
2023-06-10T03:44:25.926Z,11.43
2023-06-10T03:46:52.906Z,10.75
2023-06-10T03:49:19.924Z,11.13
2023-06-10T03:51:46.891Z,10.85
2023-06-10T03:54:15.212Z,11.15
2023-06-10T03:56:42.235Z,11.70
2023-06-10T03:59:09.146Z,11.18
2023-06-10T04:01:36.088Z,11.27
2023-06-10T04:04:03.055Z,10.82
2023-06-10T04:06:30.001Z,11.40
2023-06-10T04:08:57.417Z,10.98
2023-06-10T04:11:25.950Z,11.65
2023-06-10T04:13:53.081Z,11.43
2023-06-10T04:16:21.035Z,11.38
2023-06-10T04:18:48.200Z,12.18
2023-06-10T04:21:15.291Z,10.98
2023-06-10T04:23:42.363Z,11.50
2023-06-10T04:26:09.608Z,11.57
2023-06-10T04:28:37.949Z,11.35
2023-06-10T04:31:04.922Z,11.98
2023-06-10T04:33:31.925Z,11.05
2023-06-10T04:35:58.907Z,11.40
2023-06-10T04:38:26.001Z,11.75
2023-06-10T04:40:52.970Z,11.38
2023-06-10T04:43:19.909Z,11.27
2023-06-10T04:45:48.249Z,11.68
2023-06-10T04:48:15.246Z,10.90
2023-06-10T04:50:42.310Z,10.95
2023-06-10T04:53:09.413Z,11.15
2023-06-10T04:55:36.403Z,10.82
2023-06-10T04:58:03.378Z,11.77
2023-06-10T05:00:30.404Z,12.02
2023-06-10T05:02:58.839Z,11.15
2023-06-10T05:05:25.854Z,11.68
2023-06-10T05:07:52.848Z,12.25
2023-06-10T05:10:19.893Z,11.57
2023-06-10T05:12:47.137Z,11.68
2023-06-10T05:15:14.085Z,11.15
2023-06-10T05:17:41.346Z,11.25
2023-06-10T05:20:11.155Z,11.60
2023-06-10T05:22:38.085Z,11.30
2023-06-10T05:25:05.946Z,11.13
2023-06-10T05:27:32.880Z,11.13
2023-06-10T05:29:59.901Z,10.80
2023-06-10T05:32:26.955Z,10.70
2023-06-10T05:34:53.897Z,11.15
2023-06-10T05:37:22.275Z,11.30
2023-06-10T05:39:49.264Z,11.75
2023-06-10T05:42:16.324Z,11.10
2023-06-10T05:44:43.298Z,11.20
2023-06-10T05:47:10.328Z,11.02
2023-06-10T05:49:37.263Z,11.27
2023-06-10T05:52:04.721Z,10.63
2023-06-10T05:54:33.064Z,10.40
2023-06-10T05:57:00.080Z,10.05
2023-06-10T05:59:27.007Z,10.00
2023-06-10T06:01:53.971Z,10.77
2023-06-10T06:04:20.974Z,10.75
2023-06-10T06:06:47.982Z,10.27
2023-06-10T06:09:15.176Z,10.00
2023-06-10T06:11:43.534Z,11.27
2023-06-10T06:14:10.466Z,10.00
2023-06-10T06:16:37.537Z,9.85
2023-06-10T06:19:04.533Z,9.13
2023-06-10T06:21:31.515Z,9.55
2023-06-10T06:24:00.286Z,10.15
2023-06-10T06:26:27.279Z,10.80
2023-06-10T06:28:55.589Z,9.93
2023-06-10T06:31:22.593Z,10.18
2023-06-10T06:33:49.669Z,10.25
2023-06-10T06:36:16.664Z,10.48
2023-06-10T06:38:43.647Z,9.60
2023-06-10T06:41:10.818Z,10.82
2023-06-10T06:43:37.799Z,9.75
2023-06-10T06:46:07.087Z,9.85
2023-06-10T06:48:34.264Z,9.85
2023-06-10T06:51:01.509Z,10.02
2023-06-10T06:53:30.914Z,10.00
2023-06-10T06:55:59.209Z,9.32
2023-06-10T06:58:26.120Z,10.15
2023-06-10T07:00:53.256Z,9.85
2023-06-10T07:03:21.600Z,9.23
2023-06-10T07:05:48.664Z,9.48
2023-06-10T07:08:15.657Z,8.85
2023-06-10T07:10:42.694Z,9.50
2023-06-10T07:13:09.610Z,9.27
2023-06-10T07:15:36.625Z,9.30
2023-06-10T07:18:03.826Z,9.32
2023-06-10T07:20:32.203Z,9.35
2023-06-10T07:22:59.187Z,9.02
2023-06-10T07:25:26.143Z,8.60
2023-06-10T07:27:53.165Z,8.50
2023-06-10T07:30:20.176Z,9.05
2023-06-10T07:32:47.138Z,8.45
2023-06-10T07:35:15.484Z,8.85
2023-06-10T07:37:43.945Z,8.70
2023-06-10T07:40:11.465Z,9.57
2023-06-10T07:42:38.541Z,8.88
2023-06-10T07:45:06.730Z,8.98
2023-06-10T07:47:35.739Z,8.75
2023-06-10T07:50:03.012Z,8.93
2023-06-10T07:52:30.068Z,8.57
2023-06-10T07:54:58.448Z,8.75
2023-06-10T07:57:25.424Z,8.90
2023-06-10T07:59:52.452Z,9.73
2023-06-10T08:02:19.469Z,9.30
2023-06-10T08:04:46.614Z,9.05
2023-06-10T08:07:13.627Z,8.88
2023-06-10T08:09:40.591Z,9.07
2023-06-10T08:12:09.438Z,8.88
2023-06-10T08:14:36.589Z,8.43
2023-06-10T08:17:03.838Z,8.98
2023-06-10T08:19:31.019Z,8.45
2023-06-10T08:21:58.084Z,8.35
2023-06-10T08:24:25.158Z,8.63
2023-06-10T08:26:52.139Z,8.80
2023-06-10T08:29:20.548Z,9.57
2023-06-10T08:31:47.600Z,8.88
2023-06-10T08:34:14.574Z,8.43
2023-06-10T08:36:41.593Z,8.93
2023-06-10T08:39:08.616Z,8.55
2023-06-10T08:41:41.648Z,8.70
2023-06-10T08:44:13.508Z,8.75
2023-06-10T08:46:45.878Z,8.85
2023-06-10T08:49:19.151Z,8.82
2023-06-10T08:51:48.125Z,8.27
2023-06-10T08:54:19.077Z,9.40
2023-06-10T08:56:48.221Z,8.80
2023-06-10T08:59:16.145Z,9.23
2023-06-10T09:01:45.485Z,8.35
2023-06-10T09:04:13.480Z,8.80
2023-06-10T09:06:41.499Z,8.77
2023-06-10T09:09:08.601Z,8.85
2023-06-10T09:11:35.786Z,9.05
2023-06-10T09:14:02.731Z,8.38
2023-06-10T09:16:29.792Z,9.13
2023-06-10T09:18:58.544Z,8.80
2023-06-10T09:21:26.159Z,9.38
2023-06-10T09:23:53.540Z,8.77
2023-06-10T09:26:20.619Z,9.07
2023-06-10T09:28:49.866Z,9.20
2023-06-10T09:31:18.063Z,10.02
2023-06-10T09:33:46.003Z,8.65
2023-06-10T09:36:23.095Z,9.38
2023-06-10T09:38:51.240Z,8.65
2023-06-10T09:41:18.895Z,8.77
2023-06-10T09:43:47.250Z,8.30
2023-06-10T09:46:17.900Z,8.68
2023-06-10T09:48:46.051Z,8.70
2023-06-10T09:51:15.873Z,8.63
2023-06-10T09:53:49.376Z,8.70
2023-06-10T09:56:16.433Z,8.43
2023-06-10T09:58:50.341Z,8.35
2023-06-10T10:01:17.390Z,8.15
2023-06-10T10:03:52.329Z,7.78
2023-06-10T10:06:21.596Z,8.27
2023-06-10T10:08:57.338Z,8.48
2023-06-10T10:11:25.673Z,8.23
2023-06-10T10:14:00.342Z,8.50
2023-06-10T10:16:34.643Z,8.52
2023-06-10T10:19:14.357Z,8.18
2023-06-10T10:21:47.325Z,8.30
2023-06-10T10:24:25.431Z,7.43
2023-06-10T10:26:55.560Z,7.93
2023-06-10T10:29:33.372Z,7.57
2023-06-10T10:32:02.007Z,7.78
2023-06-10T10:34:44.334Z,7.72
2023-06-10T10:37:12.722Z,8.23
2023-06-10T10:39:47.342Z,7.72
2023-06-10T10:42:15.478Z,7.60
2023-06-10T10:44:49.344Z,7.15
2023-06-10T10:47:18.831Z,6.93
2023-06-10T10:49:56.501Z,7.25
2023-06-10T10:52:24.855Z,7.53
2023-06-10T10:55:01.339Z,7.50
2023-06-10T10:57:30.865Z,7.00
2023-06-10T11:00:06.422Z,7.18
2023-06-10T11:02:38.774Z,7.38
2023-06-10T11:05:14.688Z,7.75
2023-06-10T11:07:54.268Z,7.30
2023-06-10T11:10:37.357Z,8.02
2023-06-10T11:13:08.781Z,7.38
2023-06-10T11:15:46.392Z,7.65
2023-06-10T11:18:24.365Z,7.88
2023-06-10T11:21:06.477Z,7.40
2023-06-10T11:23:42.677Z,7.05
2023-06-10T11:26:27.365Z,7.53
2023-06-10T11:29:08.860Z,7.25
2023-06-10T11:31:47.527Z,7.22
2023-06-10T11:34:15.210Z,7.30
2023-06-10T11:36:50.363Z,8.38
2023-06-10T11:39:28.301Z,7.38
2023-06-10T11:42:02.397Z,7.97
2023-06-10T11:46:57.819Z,7.50
2023-06-10T11:49:31.368Z,7.43
2023-06-10T11:51:58.332Z,7.72
2023-06-10T11:54:33.361Z,7.82
2023-06-10T11:57:01.088Z,8.00
2023-06-10T11:59:35.391Z,7.78
2023-06-10T12:02:02.463Z,7.88
2023-06-10T12:04:29.518Z,8.50
2023-06-10T12:07:03.378Z,8.15
2023-06-10T12:09:31.700Z,8.70
2023-06-10T12:12:06.406Z,7.93
2023-06-10T12:14:52.676Z,8.27
2023-06-10T12:17:26.473Z,8.02
2023-06-10T12:19:53.547Z,8.70
2023-06-10T12:22:27.385Z,8.85
2023-06-10T12:25:03.406Z,9.23
2023-06-10T12:27:37.401Z,8.68
2023-06-10T12:30:06.305Z,8.75
2023-06-10T12:32:43.465Z,9.13
2023-06-10T12:35:11.971Z,8.38
2023-06-10T12:37:45.394Z,9.27
2023-06-10T12:40:14.288Z,8.48
2023-06-10T12:42:49.811Z,9.02
2023-06-10T12:45:27.774Z,8.98
2023-06-10T12:48:12.647Z,8.50
2023-06-10T12:50:40.711Z,8.82
2023-06-10T12:53:14.420Z,8.80
2023-06-10T12:55:43.195Z,8.73
2023-06-10T12:58:16.392Z,9.10
2023-06-10T13:00:43.813Z,8.88
2023-06-10T13:03:18.385Z,9.18
2023-06-10T13:05:45.370Z,8.80
2023-06-10T13:08:12.375Z,8.80
2023-06-10T13:10:46.776Z,8.15
2023-06-10T13:13:15.168Z,9.25
2023-06-10T13:15:49.413Z,8.85
2023-06-10T13:18:16.526Z,9.48
2023-06-10T13:20:43.617Z,8.70
2023-06-10T13:23:17.421Z,8.98
2023-06-10T13:25:44.392Z,8.75
2023-06-10T13:28:18.420Z,9.35
2023-06-10T13:33:20.410Z,9.02
2023-06-10T13:35:47.362Z,9.00
2023-06-10T13:38:14.325Z,9.38
2023-06-10T13:40:47.401Z,9.27
2023-06-10T13:43:14.329Z,8.77
2023-06-10T13:45:41.332Z,8.55
2023-06-10T13:48:16.463Z,8.48
2023-06-10T13:50:43.465Z,8.25
2023-06-10T13:53:10.395Z,9.00
2023-06-10T13:55:43.397Z,8.50
2023-06-10T13:58:10.359Z,8.23
2023-06-10T14:00:37.445Z,8.95
2023-06-10T14:03:11.574Z,9.10
2023-06-10T14:05:40.071Z,9.30
2023-06-10T14:08:13.423Z,8.85
2023-06-10T14:10:40.486Z,9.03
2023-06-10T14:13:07.450Z,8.32
2023-06-10T14:15:41.443Z,9.13
2023-06-10T14:18:08.432Z,9.25
2023-06-10T14:20:42.457Z,8.32
2023-06-10T14:23:10.830Z,8.80
2023-06-10T14:25:44.773Z,9.45
2023-06-10T14:28:11.825Z,8.30
2023-06-10T14:30:45.455Z,9.25
2023-06-10T14:33:12.661Z,9.07
2023-06-10T14:35:39.705Z,8.93
2023-06-10T14:38:13.474Z,8.57
2023-06-10T14:40:41.836Z,9.48
2023-06-10T14:43:15.428Z,7.97
2023-06-10T14:45:42.826Z,9.05
2023-06-10T14:48:16.449Z,8.77
2023-06-10T14:50:43.476Z,8.40
2023-06-10T14:53:17.479Z,8.57
2023-06-10T14:55:45.877Z,8.88
2023-06-10T14:58:12.954Z,8.68
2023-06-10T15:00:46.447Z,8.82
2023-06-10T15:03:13.482Z,8.48
2023-06-10T15:05:47.461Z,8.15
2023-06-10T15:08:14.473Z,8.90
2023-06-10T15:10:48.501Z,8.85
2023-06-10T15:13:16.893Z,8.70
2023-06-10T15:15:50.494Z,8.77
2023-06-10T15:18:17.574Z,8.95
2023-06-10T15:20:51.463Z,8.48
2023-06-10T15:23:18.426Z,8.45
2023-06-10T15:25:45.448Z,8.35
2023-06-10T15:28:18.448Z,8.57
2023-06-10T15:30:46.744Z,8.93
2023-06-10T15:33:20.443Z,8.20
2023-06-10T15:35:47.477Z,8.43
2023-06-10T15:38:21.475Z,8.82
2023-06-10T15:40:48.592Z,8.77
2023-06-10T15:43:22.469Z,9.07
2023-06-10T15:45:50.843Z,8.07
2023-06-10T15:48:24.451Z,8.82
2023-06-10T15:50:51.462Z,8.75
2023-06-10T15:53:18.393Z,8.93
2023-06-10T15:55:51.475Z,9.57
2023-06-10T15:58:18.422Z,8.52
2023-06-10T16:00:45.440Z,8.85
2023-06-10T16:03:20.572Z,9.00
2023-06-10T16:05:54.484Z,8.93
2023-06-10T16:08:28.473Z,8.85
2023-06-10T16:10:55.567Z,9.10
2023-06-10T16:13:29.496Z,8.88
2023-06-10T16:15:56.489Z,8.70
2023-06-10T16:18:31.454Z,8.23
2023-06-10T16:21:05.220Z,8.50
2023-06-10T16:23:38.586Z,9.00
2023-06-10T16:26:05.917Z,8.53
2023-06-10T16:28:32.973Z,8.27
2023-06-10T16:31:06.654Z,8.73
2023-06-10T16:33:35.401Z,8.82
2023-06-10T16:36:08.496Z,8.55
2023-06-10T16:38:35.631Z,9.45
2023-06-10T16:41:09.506Z,8.90
2023-06-10T16:43:36.451Z,9.38
2023-06-10T16:46:03.447Z,8.85
2023-06-10T16:48:36.514Z,8.50
2023-06-10T16:51:04.924Z,8.68
2023-06-10T16:53:38.454Z,8.50
2023-06-10T16:56:05.940Z,8.45
2023-06-10T16:58:39.501Z,8.75
2023-06-10T17:01:08.885Z,8.63
2023-06-10T17:03:42.490Z,8.20
2023-06-10T17:06:10.866Z,8.80
2023-06-10T17:08:44.505Z,8.50
2023-06-10T17:11:11.478Z,8.25
2023-06-10T17:13:45.550Z,9.05
2023-06-10T17:16:12.581Z,9.18
2023-06-10T17:18:46.542Z,9.00
2023-06-10T17:21:21.554Z,8.40
2023-06-10T17:23:55.513Z,9.02
2023-06-10T17:26:22.536Z,9.38
2023-06-10T17:28:56.483Z,8.45
2023-06-10T17:31:23.492Z,8.75
2023-06-10T17:33:50.549Z,7.90
2023-06-10T17:36:24.517Z,8.50
2023-06-10T17:38:52.909Z,8.55
2023-06-10T17:41:26.499Z,8.32
2023-06-10T17:43:53.476Z,8.45
2023-06-10T17:46:20.533Z,8.73
2023-06-10T17:48:54.503Z,8.73
2023-06-10T17:51:21.454Z,8.77
2023-06-10T17:53:48.441Z,8.32
2023-06-10T17:56:17.065Z,8.70
2023-06-10T17:58:44.033Z,8.38
2023-06-10T18:01:11.033Z,8.75
2023-06-10T18:03:38.240Z,8.55
2023-06-10T18:06:05.946Z,8.45
2023-06-10T18:08:34.136Z,9.15
2023-06-10T18:11:01.948Z,8.70
2023-06-10T18:13:31.899Z,8.95
2023-06-10T18:15:59.049Z,8.40
2023-06-10T18:18:26.068Z,8.63
2023-06-10T18:20:53.312Z,8.55
2023-06-10T18:23:20.424Z,8.70
2023-06-10T18:25:47.541Z,8.27
2023-06-10T18:28:14.574Z,8.90
2023-06-10T18:30:43.038Z,8.80
2023-06-10T18:33:10.178Z,9.02
2023-06-10T18:35:37.237Z,9.00
2023-06-10T18:38:04.238Z,9.18
2023-06-10T18:40:31.243Z,9.70
2023-06-10T18:42:58.208Z,9.45
2023-06-10T18:45:25.208Z,9.15
2023-06-10T18:47:58.104Z,9.13
2023-06-10T18:50:26.268Z,9.68
2023-06-10T18:52:53.288Z,9.57
2023-06-10T18:55:21.005Z,9.52
2023-06-10T18:57:47.988Z,9.38
2023-06-10T19:00:16.174Z,9.48
2023-06-10T19:02:43.295Z,10.15
2023-06-10T19:05:12.069Z,10.32
2023-06-10T19:07:39.706Z,10.38
2023-06-10T19:10:07.904Z,10.77
2023-06-10T19:12:34.883Z,10.18
2023-06-10T19:15:01.873Z,10.50
2023-06-10T19:17:28.947Z,9.60
2023-06-10T19:19:55.882Z,10.20
2023-06-10T19:22:24.201Z,9.82
2023-06-10T19:25:00.190Z,10.38
2023-06-10T19:27:27.246Z,10.30
2023-06-10T19:29:54.253Z,10.25
2023-06-10T19:32:21.314Z,10.82
2023-06-10T19:34:48.305Z,11.10
2023-06-10T19:37:15.295Z,10.23
2023-06-10T19:39:43.646Z,10.95
2023-06-10T19:42:13.527Z,10.57
2023-06-10T19:44:42.208Z,10.43
2023-06-10T19:47:09.339Z,10.25
2023-06-10T19:49:36.299Z,9.50
2023-06-10T19:52:03.584Z,9.90
2023-06-10T19:54:30.571Z,10.25
2023-06-10T19:56:58.898Z,10.18
2023-06-10T19:59:25.921Z,10.82
2023-06-10T20:01:52.974Z,10.38
2023-06-10T20:04:20.092Z,10.77
2023-06-10T20:06:47.269Z,10.68
2023-06-10T20:09:14.314Z,10.25
2023-06-10T20:11:41.433Z,10.50
2023-06-10T20:14:09.770Z,10.45
2023-06-10T20:16:36.887Z,10.75
2023-06-10T20:19:04.053Z,10.82
2023-06-10T20:21:31.106Z,11.25
2023-06-10T20:23:58.295Z,11.38
2023-06-10T20:26:25.314Z,10.75
2023-06-10T20:28:52.315Z,10.90
2023-06-10T20:31:21.225Z,10.70
2023-06-10T20:33:48.176Z,10.50
2023-06-10T20:36:15.141Z,11.55
2023-06-10T20:38:42.203Z,11.32
2023-06-10T20:41:09.370Z,11.30
2023-06-10T20:43:36.351Z,10.90
2023-06-10T20:46:03.570Z,11.25
2023-06-10T20:48:32.162Z,10.88
2023-06-10T20:50:59.127Z,10.95
2023-06-10T20:53:26.182Z,11.10
2023-06-10T20:55:53.186Z,11.48
2023-06-10T20:58:20.274Z,11.35
2023-06-10T21:00:47.303Z,11.70
2023-06-10T21:03:14.402Z,11.57
2023-06-10T21:05:42.882Z,11.40
2023-06-10T21:08:09.988Z,11.45
2023-06-10T21:10:37.023Z,10.65
2023-06-10T21:13:03.992Z,10.73
2023-06-10T21:15:30.959Z,10.80
2023-06-10T21:17:57.950Z,11.40
2023-06-10T21:20:24.995Z,11.60
2023-06-10T21:22:53.391Z,11.05
2023-06-10T21:25:20.538Z,11.68
2023-06-10T21:27:47.577Z,12.40
2023-06-10T21:30:14.812Z,10.93
2023-06-10T21:32:41.820Z,12.15
2023-06-10T21:35:09.492Z,11.90
2023-06-10T21:37:36.623Z,11.80
2023-06-10T21:40:06.165Z,11.13
2023-06-10T21:42:33.153Z,11.60
2023-06-10T21:45:00.187Z,12.20
2023-06-10T21:47:27.201Z,11.15
2023-06-10T21:49:54.261Z,11.77
2023-06-10T21:52:21.240Z,11.73
2023-06-10T21:54:48.305Z,11.43
2023-06-10T21:57:16.767Z,11.55
2023-06-10T21:59:43.848Z,10.57
2023-06-10T22:02:10.851Z,12.05
2023-06-10T22:04:37.785Z,11.02
2023-06-10T22:07:05.384Z,11.20
2023-06-10T22:09:32.418Z,11.40
2023-06-10T22:11:59.392Z,10.60
2023-06-10T22:14:27.894Z,10.93
2023-06-10T22:16:55.057Z,11.40
2023-06-10T22:19:22.050Z,11.30
2023-06-10T22:21:49.118Z,11.40
2023-06-10T22:24:16.457Z,11.02
2023-06-10T22:26:53.488Z,10.88
2023-06-10T22:29:21.275Z,11.77
2023-06-10T22:31:49.641Z,11.27
2023-06-10T22:34:16.600Z,11.25
2023-06-10T22:36:43.600Z,10.88
2023-06-10T22:39:10.587Z,10.93
2023-06-10T22:41:37.545Z,11.38
2023-06-10T22:44:05.058Z,11.43
2023-06-10T22:46:32.220Z,11.82
2023-06-10T22:49:00.557Z,11.68
2023-06-10T22:51:27.566Z,11.13
2023-06-10T22:53:54.548Z,11.13
2023-06-10T22:56:21.509Z,11.05
2023-06-10T22:58:48.513Z,11.27
2023-06-10T23:01:15.549Z,11.50
2023-06-10T23:03:42.663Z,11.48
2023-06-10T23:06:11.055Z,11.82
2023-06-10T23:08:38.031Z,11.60
2023-06-10T23:11:05.069Z,11.52
2023-06-10T23:13:32.039Z,11.32
2023-06-10T23:15:59.033Z,11.45
2023-06-10T23:18:25.999Z,11.57
2023-06-10T23:20:53.033Z,10.88
2023-06-10T23:23:21.395Z,11.05
2023-06-10T23:25:48.348Z,11.40
2023-06-10T23:28:15.353Z,11.45
2023-06-10T23:30:42.311Z,10.70
2023-06-10T23:33:09.277Z,10.73
2023-06-10T23:35:36.433Z,11.45
2023-06-10T23:38:03.374Z,11.40
2023-06-10T23:40:31.705Z,11.70
2023-06-10T23:42:58.825Z,11.73
2023-06-10T23:45:25.854Z,11.15
2023-06-10T23:47:52.878Z,11.10
2023-06-10T23:50:19.939Z,11.70
2023-06-10T23:52:47.107Z,11.85
2023-06-10T23:55:14.141Z,11.57
2023-06-10T23:57:42.447Z,11.32
